sensor_id;sensor_type;location;lat;lon;timestamp;pressure;altitude;pressure_sealevel;temperature
62107;BMP280;48087;32.600;-97.100;2022-08-20T00:01:34;;;;34.332989999999995
62107;BMP280;48087;32.600;-97.100;2022-08-20T00:06:39;;;;34.66632
62107;BMP280;48087;32.600;-97.100;2022-08-20T00:11:42;;;;34.721875
62107;BMP280;48087;32.600;-97.100;2022-08-20T00:16:47;;;;34.55521
62107;BMP280;48087;32.600;-97.100;2022-08-20T00:21:50;;;;34.055215
62107;BMP280;48087;32.600;-97.100;2022-08-20T00:26:55;;;;33.721885
62107;BMP280;48087;32.600;-97.100;2022-08-20T00:31:58;;;;33.11078
62107;BMP280;48087;32.600;-97.100;2022-08-20T00:37:03;;;;32.721895
62107;BMP280;48087;32.600;-97.100;2022-08-20T00:42:06;;;;32.388565
62107;BMP280;48087;32.600;-97.100;2022-08-20T00:47:11;;;;32.055235
62107;BMP280;48087;32.600;-97.100;2022-08-20T00:52:14;;;;31.721904999999996
62107;BMP280;48087;32.600;-97.100;2022-08-20T00:57:20;;;;31.388575
62107;BMP280;48087;32.600;-97.100;2022-08-20T01:02:22;;;;30.944135
62107;BMP280;48087;32.600;-97.100;2022-08-20T01:07:27;;;;30.55525
62107;BMP280;48087;32.600;-97.100;2022-08-20T01:12:30;;;;30.333029999999997
62107;BMP280;48087;32.600;-97.100;2022-08-20T01:17:36;;;;30.444139999999997
62107;BMP280;48087;32.600;-97.100;2022-08-20T01:22:40;;;;30.333029999999997
62107;BMP280;48087;32.600;-97.100;2022-08-20T01:27:42;;;;30.388585000000003
62107;BMP280;48087;32.600;-97.100;2022-08-20T01:32:46;;;;30.166365
62107;BMP280;48087;32.600;-97.100;2022-08-20T01:37:51;;;;29.721925
62107;BMP280;48087;32.600;-97.100;2022-08-20T01:42:54;;;;29.333039999999997
62107;BMP280;48087;32.600;-97.100;2022-08-20T01:47:58;;;;29.166375
62107;BMP280;48087;32.600;-97.100;2022-08-20T01:53:03;;;;28.944154999999995
62107;BMP280;48087;32.600;-97.100;2022-08-20T01:58:06;;;;28.721935000000002
62107;BMP280;48087;32.600;-97.100;2022-08-20T02:03:10;;;;28.555270000000004
62107;BMP280;48087;32.600;-97.100;2022-08-20T02:08:13;;;;28.388604999999995
62107;BMP280;48087;32.600;-97.100;2022-08-20T02:13:17;;;;28.221939999999996
62107;BMP280;48087;32.600;-97.100;2022-08-20T02:18:21;;;;28.110829999999996
62107;BMP280;48087;32.600;-97.100;2022-08-20T02:23:25;;;;28.055274999999998
62107;BMP280;48087;32.600;-97.100;2022-08-20T02:28:31;;;;27.944164999999998
62107;BMP280;48087;32.600;-97.100;2022-08-20T02:33:35;;;;27.833054999999995
62107;BMP280;48087;32.600;-97.100;2022-08-20T02:38:38;;;;27.721945
62107;BMP280;48087;32.600;-97.100;2022-08-20T02:43:43;;;;27.721945
62107;BMP280;48087;32.600;-97.100;2022-08-20T02:48:46;;;;27.721945
62107;BMP280;48087;32.600;-97.100;2022-08-20T02:53:50;;;;27.610835
62107;BMP280;48087;32.600;-97.100;2022-08-20T02:58:55;;;;27.499724999999998
62107;BMP280;48087;32.600;-97.100;2022-08-20T03:03:58;;;;27.444170000000003
62107;BMP280;48087;32.600;-97.100;2022-08-20T03:09:02;;;;27.33306
62107;BMP280;48087;32.600;-97.100;2022-08-20T03:14:06;;;;27.277504999999998
62107;BMP280;48087;32.600;-97.100;2022-08-20T03:19:09;;;;27.166395
62107;BMP280;48087;32.600;-97.100;2022-08-20T03:24:13;;;;27.055285
62107;BMP280;48087;32.600;-97.100;2022-08-20T03:29:18;;;;27.055285
62107;BMP280;48087;32.600;-97.100;2022-08-20T03:34:22;;;;26.944174999999998
62107;BMP280;48087;32.600;-97.100;2022-08-20T03:39:26;;;;26.77751
62107;BMP280;48087;32.600;-97.100;2022-08-20T03:44:30;;;;26.6664
62107;BMP280;48087;32.600;-97.100;2022-08-20T03:50:21;;;;26.55529
62107;BMP280;48087;32.600;-97.100;2022-08-20T03:55:26;;;;26.6664
62107;BMP280;48087;32.600;-97.100;2022-08-20T04:00:31;;;;26.499735
62107;BMP280;48087;32.600;-97.100;2022-08-20T04:05:35;;;;26.388625
62107;BMP280;48087;32.600;-97.100;2022-08-20T04:10:38;;;;26.277514999999998
62107;BMP280;48087;32.600;-97.100;2022-08-20T04:15:42;;;;26.22196
62107;BMP280;48087;32.600;-97.100;2022-08-20T04:20:45;;;;26.166404999999997
62107;BMP280;48087;32.600;-97.100;2022-08-20T04:25:50;;;;26.166404999999997
62107;BMP280;48087;32.600;-97.100;2022-08-20T04:30:55;;;;26.055295
62107;BMP280;48087;32.600;-97.100;2022-08-20T04:35:58;;;;25.99974
62107;BMP280;48087;32.600;-97.100;2022-08-20T04:41:01;;;;25.888629999999996
62107;BMP280;48087;32.600;-97.100;2022-08-20T04:46:07;;;;25.833075
62107;BMP280;48087;32.600;-97.100;2022-08-20T23:56:26;;;;32.33301
